createdAt,value
2018-10-09T00:01:27.540Z,12.00
2018-10-09T00:04:30.034Z,12.04
2018-10-09T00:07:25.383Z,12.00
2018-10-09T00:37:26.038Z,11.82
2018-10-09T01:06:11.911Z,11.77
2018-10-09T01:09:15.681Z,11.71
2018-10-09T01:21:48.024Z,11.70
2018-10-09T01:31:24.884Z,11.82
2018-10-09T01:51:10.354Z,11.88
2018-10-09T02:20:27.485Z,11.78
2018-10-09T03:11:27.115Z,11.23
2018-10-09T03:14:31.525Z,11.19
2018-10-09T03:20:31.659Z,11.18
2018-10-09T03:23:20.618Z,11.19
2018-10-09T03:26:15.834Z,11.19
2018-10-09T03:41:22.251Z,11.16
2018-10-09T03:50:02.620Z,10.92
2018-10-09T03:52:59.226Z,10.93
2018-10-09T03:55:48.683Z,10.83
2018-10-09T03:58:38.379Z,10.74
2018-10-09T04:01:26.664Z,10.76
2018-10-09T04:04:26.312Z,10.80
2018-10-09T04:07:27.857Z,10.76
2018-10-09T04:10:19.806Z,10.79
2018-10-09T04:21:08.376Z,10.85
2018-10-09T04:27:05.749Z,10.77
2018-10-09T04:33:24.603Z,10.82
2018-10-09T04:36:19.715Z,10.76
2018-10-09T04:39:06.708Z,10.73
2018-10-09T04:41:54.745Z,10.66
2018-10-09T04:45:07.776Z,10.57
2018-10-09T04:47:59.601Z,10.63
2018-10-09T04:50:42.874Z,10.71
2018-10-09T04:53:42.128Z,10.65
2018-10-09T04:56:37.477Z,10.67
2018-10-09T04:59:41.543Z,10.57
2018-10-09T05:02:38.483Z,10.51
2018-10-09T05:05:31.844Z,10.57
2018-10-09T05:08:22.859Z,10.65
2018-10-09T05:11:08.674Z,10.72
2018-10-09T05:14:07.384Z,10.58
2018-10-09T05:16:57.745Z,10.59
2018-10-09T05:22:39.345Z,10.39
2018-10-09T05:25:26.153Z,10.35
2018-10-09T05:28:15.231Z,10.34
2018-10-09T05:31:04.338Z,10.40
2018-10-09T05:48:45.467Z,10.21
2018-10-09T05:54:25.485Z,10.25
2018-10-09T06:00:17.910Z,10.31
2018-10-09T06:11:46.907Z,10.38
2018-10-09T06:14:30.737Z,10.33
2018-10-09T06:17:22.862Z,10.33
2018-10-09T06:20:05.496Z,10.25
2018-10-09T06:22:58.531Z,10.22
2018-10-09T06:28:55.972Z,10.20
2018-10-09T06:31:38.116Z,10.12
2018-10-09T06:34:21.765Z,10.15
2018-10-09T06:40:18.026Z,10.15
2018-10-09T06:46:20.315Z,10.25
2018-10-09T06:51:58.650Z,10.43
2018-10-09T06:54:50.106Z,10.50
2018-10-09T07:00:38.673Z,10.69
2018-10-09T07:03:27.321Z,10.85
2018-10-09T07:06:08.568Z,11.01
2018-10-09T07:09:00.818Z,11.16
2018-10-09T07:11:48.789Z,11.36
2018-10-09T07:14:49.088Z,11.55
2018-10-09T07:26:35.077Z,12.20
2018-10-09T07:29:25.156Z,12.23
2018-10-09T07:32:17.794Z,12.34
2018-10-09T07:35:00.777Z,12.21
2018-10-09T07:37:50.052Z,12.15
2018-10-09T07:40:37.465Z,12.18
2018-10-09T07:43:23.451Z,12.28
2018-10-09T07:46:05.137Z,12.37
2018-10-09T07:48:54.439Z,12.56
2018-10-09T07:51:53.813Z,12.79
2018-10-09T07:54:40.214Z,12.94
2018-10-09T07:57:26.896Z,12.99
2018-10-09T08:04:09.851Z,13.01
2018-10-09T08:06:47.834Z,13.17
2018-10-09T08:09:44.400Z,13.25
2018-10-09T08:12:48.543Z,13.26
2018-10-09T08:15:47.542Z,13.20
2018-10-09T08:21:41.198Z,13.16
2018-10-09T08:24:33.116Z,13.10
2018-10-09T08:27:24.008Z,13.11
2018-10-09T08:33:11.876Z,13.15
2018-10-09T08:36:06.579Z,13.21
2018-10-09T08:38:59.683Z,13.18
2018-10-09T08:41:53.912Z,13.18
2018-10-09T08:50:24.502Z,13.29
2018-10-09T08:56:15.242Z,13.39
2018-10-09T09:01:49.970Z,13.64
2018-10-09T09:07:59.164Z,13.92
2018-10-09T09:10:57.198Z,14.04
2018-10-09T09:16:40.887Z,14.34
2018-10-09T09:19:27.994Z,14.48
2018-10-09T09:22:15.215Z,14.64
2018-10-09T09:24:59.253Z,14.72
2018-10-09T09:27:40.368Z,14.77
2018-10-09T09:49:52.120Z,15.59
2018-10-09T11:52:48.321Z,19.33
2018-10-09T12:18:56.107Z,19.83
2018-10-09T12:25:09.791Z,20.01
2018-10-09T13:49:18.063Z,19.09
2018-10-09T14:12:59.180Z,18.88
2018-10-09T14:16:03.679Z,18.87
2018-10-09T14:19:53.689Z,18.89
2018-10-09T14:23:11.005Z,18.77
2018-10-09T16:37:57.161Z,18.23
2018-10-09T16:40:27.637Z,18.20
2018-10-09T16:42:56.084Z,18.21
2018-10-09T16:45:28.092Z,18.18
2018-10-09T16:47:57.033Z,18.15
2018-10-09T16:50:28.431Z,18.13
2018-10-09T16:52:56.949Z,18.18
2018-10-09T16:55:29.258Z,18.10
2018-10-09T16:58:00.149Z,18.06
2018-10-09T17:00:35.001Z,18.05
2018-10-09T17:03:08.046Z,18.04
2018-10-09T17:05:39.547Z,18.10
2018-10-09T17:08:18.922Z,18.12
2018-10-09T17:13:25.903Z,18.12
2018-10-09T17:16:03.456Z,18.06
2018-10-09T17:18:32.503Z,18.06
2018-10-09T17:21:03.066Z,18.02
2018-10-09T17:23:38.789Z,17.94
2018-10-09T17:26:07.473Z,17.89
2018-10-09T17:28:36.688Z,17.88
2018-10-09T17:33:52.793Z,17.90
2018-10-09T17:36:21.214Z,17.89
2018-10-09T17:38:50.077Z,17.73
2018-10-09T17:41:18.966Z,17.79
2018-10-09T17:43:47.388Z,17.77
2018-10-09T17:46:16.127Z,17.72
2018-10-09T17:48:44.718Z,17.66
2018-10-09T17:51:13.170Z,17.65
2018-10-09T17:53:41.752Z,17.60
2018-10-09T17:56:10.341Z,17.66
2018-10-09T17:58:38.999Z,17.62
2018-10-09T18:01:07.468Z,17.60
2018-10-09T18:03:36.465Z,17.65
2018-10-09T18:06:05.029Z,17.59
2018-10-09T18:08:33.653Z,17.57
2018-10-09T18:11:08.843Z,17.52
2018-10-09T18:13:37.598Z,17.50
2018-10-09T18:16:06.659Z,17.49
2018-10-09T18:18:35.205Z,17.48
2018-10-09T18:21:03.934Z,17.39
2018-10-09T18:23:32.438Z,17.40
2018-10-09T18:26:01.869Z,17.33
2018-10-09T18:28:30.548Z,17.31
2018-10-09T18:30:59.397Z,17.36
2018-10-09T18:33:34.304Z,17.34
2018-10-09T19:10:25.451Z,17.02
2018-10-09T19:26:17.533Z,16.70
2018-10-09T19:38:40.149Z,16.59
2018-10-09T19:44:38.725Z,16.41
2018-10-09T20:24:49.474Z,15.89
2018-10-09T20:27:22.583Z,15.82
2018-10-09T20:29:54.569Z,15.78
2018-10-09T20:32:29.218Z,15.74
2018-10-09T20:35:25.773Z,15.63
2018-10-09T20:38:00.963Z,15.61
2018-10-09T20:40:36.284Z,15.64
2018-10-09T20:43:08.005Z,15.55
2018-10-09T20:45:37.065Z,15.42
2018-10-09T20:48:06.681Z,15.48
2018-10-09T20:50:35.882Z,15.47
2018-10-09T20:55:44.929Z,15.31
2018-10-09T20:58:13.940Z,15.28
2018-10-09T21:00:43.187Z,15.27
2018-10-09T21:03:12.302Z,15.20
2018-10-09T21:05:45.035Z,15.13
2018-10-09T21:08:19.620Z,15.06
